首页
METAR-TAF:

METAR-TAF

机场 :

Figari, 法国

纬度: 41-30N, 经度: 009-06E, 海拔: 26米

当前天气观测

该预报发布于35分钟前的08:00 UTC
风速10节,风向西,在西南西转西北之间变化
温度 12°C
湿度 71%
气压 1003 hPa
能见度10公里或以上

METAR: LFKF 170800Z AUTO 26010KT 220V290 9999 ///TCU 12/07 Q1003 BECMG 28020G30KT FEW012 BKN040

时间: 09:35 (08:35 UTC)

预报

该预报发布于6小时和35分钟前的02:00 UTC
预报有效从17日的 03点(UTC)到 18日的 03点(UTC)
风速5节,风向多变
能见度10公里或以上
少量云层高于1200英尺
多云层高于4000英尺
短暂存在
从 17日的 03点(UTC)到 17日的 05点(UTC)
能見度: 4000
阵雨
成为
从 17日的 04点(UTC)到 17日的 06点(UTC)
风速20节,风向西,有时为30节阵风
成为
从 17日的 18点(UTC)到 17日的 20点(UTC)
风速10节,风向西

TAF: LFKF 170200Z 1703/1803 VRB05KT 9999 FEW012 BKN040 TEMPO 1703/1705 4000 SHRA BECMG 1704/1706 28020G30KT NSW BECMG 1718/1720 27010KT

超过4000个机场的气象观测和天气预报(METAR&TAF报告)。

可查询的气象台以黄色和红色小点在地图上表示。

将鼠标移到小点上方,可查看气象台名称。

然后点击查看天气观测和预报。

如需切换地图:点击带黑十字的绿色按钮放大地图;点击带横线的绿色按钮缩小地图;或者点击绿色箭头查看邻近地区的地图。


METAR-TAF: